createdAt,value
2019-05-14T00:00:21.758Z,7.80
2019-05-14T00:02:52.074Z,7.80
2019-05-14T00:05:21.541Z,7.60
2019-05-14T00:07:52.161Z,7.60
2019-05-14T00:10:41.231Z,7.50
2019-05-14T00:13:11.879Z,7.60
2019-05-14T00:15:41.421Z,7.60
2019-05-14T00:18:11.787Z,7.60
2019-05-14T00:20:41.946Z,7.60
2019-05-14T00:23:12.196Z,7.60
2019-05-14T00:25:41.913Z,7.50
2019-05-14T00:28:31.716Z,7.50
2019-05-14T00:31:02.976Z,7.50
2019-05-14T00:33:51.395Z,7.50
2019-05-14T00:36:21.474Z,7.50
2019-05-14T00:38:51.317Z,7.50
2019-05-14T00:41:21.558Z,7.50
2019-05-14T00:44:09.650Z,7.60
2019-05-14T00:46:38.210Z,7.60
2019-05-14T00:49:06.942Z,7.60
2019-05-14T00:51:35.674Z,7.70
2019-05-14T00:54:05.799Z,7.60
2019-05-14T00:56:34.421Z,7.60
2019-05-14T00:59:03.064Z,7.70
2019-05-14T01:01:31.921Z,7.70
2019-05-14T01:04:22.108Z,7.80
2019-05-14T01:07:11.675Z,7.90
2019-05-14T01:09:41.837Z,8.00
2019-05-14T01:12:12.197Z,8.10
2019-05-14T01:14:42.473Z,8.10
2019-05-14T01:17:31.489Z,8.20
2019-05-14T01:20:02.779Z,8.20
2019-05-14T01:22:31.654Z,8.20
2019-05-14T01:25:01.568Z,8.20
2019-05-14T01:27:31.736Z,8.40
2019-05-14T01:30:02.083Z,8.30
2019-05-14T01:32:31.498Z,8.20
2019-05-14T01:35:01.427Z,8.20
2019-05-14T01:37:31.649Z,8.20
2019-05-14T01:40:21.725Z,8.10
2019-05-14T01:42:52.174Z,8.20
2019-05-14T01:45:27.712Z,8.20
2019-05-14T01:47:52.050Z,8.20
2019-05-14T01:50:21.536Z,8.10
2019-05-14T01:53:11.523Z,8.00
2019-05-14T01:56:01.579Z,8.00
2019-05-14T01:58:31.138Z,7.80
2019-05-14T02:01:01.975Z,7.70
2019-05-14T02:03:32.320Z,7.70
2019-05-14T02:06:01.404Z,7.60
2019-05-14T02:08:32.322Z,7.60
2019-05-14T02:11:01.628Z,7.40
2019-05-14T02:13:51.721Z,7.30
2019-05-14T02:16:32.300Z,7.40
2019-05-14T02:19:01.427Z,7.30
2019-05-14T02:21:51.409Z,7.30
2019-05-14T02:24:21.836Z,7.40
2019-05-14T02:26:51.456Z,7.40
2019-05-14T02:29:21.426Z,7.50
2019-05-14T02:31:50.624Z,7.60
2019-05-14T02:34:19.940Z,7.60
2019-05-14T02:37:09.281Z,7.60
2019-05-14T02:39:59.633Z,7.60
2019-05-14T02:42:29.000Z,7.70
2019-05-14T02:44:59.251Z,7.80
2019-05-14T02:47:29.814Z,7.70
2019-05-14T02:49:58.966Z,7.60
2019-05-14T02:52:29.311Z,7.50
2019-05-14T02:54:59.752Z,7.60
2019-05-14T02:57:30.394Z,7.50
2019-05-14T02:59:59.739Z,7.40
2019-05-14T03:02:29.751Z,7.50
2019-05-14T03:04:59.215Z,7.40
2019-05-14T03:07:29.845Z,7.40
2019-05-14T03:09:59.356Z,7.30
2019-05-14T03:12:30.169Z,7.20
2019-05-14T03:14:58.957Z,7.20
2019-05-14T03:17:30.049Z,7.10
2019-05-14T03:20:19.669Z,7.10
2019-05-14T03:23:01.727Z,7.10
2019-05-14T03:25:39.999Z,7.10
2019-05-14T03:28:09.226Z,6.90
2019-05-14T03:30:42.323Z,6.90
2019-05-14T03:33:13.212Z,6.80
2019-05-14T03:35:44.473Z,6.60
2019-05-14T03:38:09.658Z,6.40
2019-05-14T03:40:40.018Z,6.40
2019-05-14T03:43:09.093Z,6.40
2019-05-14T03:45:39.166Z,6.40
2019-05-14T03:48:10.409Z,6.30
2019-05-14T03:50:39.046Z,6.20
2019-05-14T03:53:10.076Z,6.20
2019-05-14T03:55:40.314Z,6.20
2019-05-14T03:58:09.930Z,6.10
2019-05-14T04:01:00.598Z,6.40
2019-05-14T04:03:31.555Z,6.50
2019-05-14T04:06:02.202Z,6.60
2019-05-14T04:08:32.146Z,6.70
2019-05-14T04:11:01.935Z,6.80
2019-05-14T04:13:51.387Z,6.80
2019-05-14T04:16:40.084Z,6.80
2019-05-14T04:19:11.725Z,7.00
2019-05-14T04:21:41.563Z,7.10
2019-05-14T04:24:13.196Z,7.00
2019-05-14T04:26:58.332Z,7.00
2019-05-14T04:29:14.110Z,7.20
2019-05-14T04:31:44.475Z,7.10
2019-05-14T04:34:14.307Z,7.20
2019-05-14T04:36:43.404Z,7.30
2019-05-14T04:39:12.069Z,7.20
2019-05-14T04:41:52.992Z,7.20
2019-05-14T04:44:21.622Z,7.20
2019-05-14T04:46:50.343Z,7.10
2019-05-14T04:49:20.055Z,7.00
2019-05-14T04:51:50.209Z,7.00
2019-05-14T04:54:19.707Z,7.20
2019-05-14T04:56:51.004Z,7.30
2019-05-14T04:59:19.938Z,7.20
2019-05-14T05:01:50.041Z,7.30
2019-05-14T05:04:20.190Z,7.30
2019-05-14T05:06:49.952Z,7.30
2019-05-14T05:09:20.063Z,7.20
2019-05-14T05:11:49.826Z,7.30
2019-05-14T05:14:19.233Z,7.30
2019-05-14T05:16:49.033Z,7.30
2019-05-14T05:19:19.608Z,7.40
2019-05-14T05:21:49.964Z,7.40
2019-05-14T05:24:18.709Z,7.60
2019-05-14T05:27:09.100Z,8.10
2019-05-14T05:29:39.050Z,9.30
2019-05-14T05:32:08.620Z,11.40
2019-05-14T05:34:38.779Z,13.00
2019-05-14T05:37:08.578Z,14.00
2019-05-14T05:39:38.683Z,15.10
2019-05-14T05:42:09.147Z,15.70
2019-05-14T05:44:39.347Z,15.90
2019-05-14T05:47:09.171Z,15.90
2019-05-14T05:49:38.254Z,15.90
2019-05-14T05:52:08.556Z,15.80
2019-05-14T05:54:58.357Z,16.10
2019-05-14T05:57:28.408Z,15.40
2019-05-14T05:59:58.882Z,14.10
2019-05-14T06:02:31.375Z,13.90
2019-05-14T06:05:00.508Z,13.70
2019-05-14T06:07:29.315Z,12.70
2019-05-14T06:10:18.727Z,12.40
2019-05-14T06:13:08.844Z,12.10
2019-05-14T06:15:58.875Z,12.00
2019-05-14T06:18:39.397Z,11.70
2019-05-14T06:21:09.175Z,11.60
2019-05-14T06:23:42.497Z,11.40
2019-05-14T06:26:30.600Z,11.50
2019-05-14T06:28:59.865Z,11.70
2019-05-14T06:31:29.178Z,11.70
2019-05-14T06:34:18.670Z,11.80
2019-05-14T06:36:48.638Z,11.70
2019-05-14T06:39:18.238Z,12.00
2019-05-14T06:41:48.997Z,12.00
2019-05-14T06:44:18.742Z,11.80
2019-05-14T06:46:48.625Z,11.60
2019-05-14T06:49:18.316Z,11.60
2019-05-14T06:51:48.977Z,11.60
2019-05-14T06:54:19.658Z,11.50
2019-05-14T06:56:49.212Z,11.60
2019-05-14T06:59:18.907Z,11.50
2019-05-14T07:01:48.983Z,11.70
2019-05-14T07:04:18.305Z,11.80
2019-05-14T07:06:48.500Z,11.80
2019-05-14T07:09:21.530Z,11.90
2019-05-14T07:11:50.173Z,11.80
2019-05-14T07:14:20.302Z,12.00
2019-05-14T07:16:48.989Z,11.80
2019-05-14T07:19:19.215Z,11.70
2019-05-14T07:21:49.221Z,11.50
2019-05-14T07:24:19.613Z,11.40
2019-05-14T07:26:49.375Z,11.50
2019-05-14T07:29:18.650Z,11.70
2019-05-14T07:31:48.964Z,11.80
2019-05-14T07:34:19.201Z,11.40
2019-05-14T07:36:49.116Z,11.50
2019-05-14T07:39:18.688Z,11.80
2019-05-14T07:41:48.324Z,11.90
2019-05-14T07:44:18.305Z,11.80
2019-05-14T07:47:08.206Z,11.80
2019-05-14T07:49:58.125Z,11.80
2019-05-14T07:52:45.989Z,11.80
2019-05-14T07:55:18.642Z,11.90
2019-05-14T07:57:48.078Z,12.00
2019-05-14T08:00:19.182Z,12.00
2019-05-14T08:03:11.221Z,12.20
2019-05-14T08:05:40.212Z,12.20
2019-05-14T08:08:08.914Z,12.30
2019-05-14T08:10:39.198Z,12.40
2019-05-14T08:13:08.489Z,12.40
2019-05-14T08:15:38.687Z,12.50
2019-05-14T08:18:08.096Z,12.50
2019-05-14T08:20:38.021Z,12.30
2019-05-14T08:23:09.014Z,12.20
2019-05-14T08:25:38.998Z,12.00
2019-05-14T08:28:08.144Z,12.00
2019-05-14T08:30:38.946Z,12.10
2019-05-14T08:33:08.921Z,12.20
2019-05-14T08:35:39.535Z,12.20
2019-05-14T08:38:11.731Z,12.30
2019-05-14T08:40:38.311Z,12.40
2019-05-14T08:43:08.644Z,12.30
2019-05-14T08:45:38.911Z,12.40
2019-05-14T08:48:29.487Z,12.50
2019-05-14T08:50:58.790Z,12.50
2019-05-14T08:53:28.793Z,12.50
2019-05-14T08:55:58.842Z,12.50
2019-05-14T08:58:30.122Z,12.60
2019-05-14T09:00:58.841Z,12.60
2019-05-14T09:03:28.841Z,12.60
2019-05-14T09:06:00.553Z,12.80
2019-05-14T09:08:28.554Z,12.70
2019-05-14T09:10:58.964Z,12.60
2019-05-14T09:13:28.907Z,12.60
2019-05-14T09:15:58.402Z,12.60
2019-05-14T09:18:29.097Z,12.80
2019-05-14T09:20:58.345Z,13.00
2019-05-14T09:23:28.586Z,12.80
2019-05-14T09:25:58.799Z,13.00
2019-05-14T09:28:50.672Z,13.00
2019-05-14T09:31:25.755Z,12.80
2019-05-14T09:33:59.695Z,13.10
2019-05-14T09:36:29.079Z,13.10
2019-05-14T09:38:58.352Z,13.20
2019-05-14T09:41:28.625Z,13.20
2019-05-14T09:43:58.751Z,13.10
2019-05-14T09:46:46.908Z,13.10
2019-05-14T09:49:18.694Z,13.30
2019-05-14T09:51:48.877Z,13.50
2019-05-14T09:54:19.378Z,13.40
2019-05-14T09:56:48.547Z,13.50
2019-05-14T09:59:18.576Z,13.60
2019-05-14T10:01:50.670Z,13.80
2019-05-14T10:04:17.743Z,13.60
2019-05-14T10:06:48.484Z,13.70
2019-05-14T10:09:18.384Z,13.60
2019-05-14T10:12:08.724Z,13.60
2019-05-14T10:14:39.028Z,13.60
2019-05-14T10:17:28.829Z,13.60
2019-05-14T10:19:59.836Z,13.70
2019-05-14T10:22:28.658Z,14.00
2019-05-14T10:24:58.231Z,14.00
2019-05-14T10:27:28.389Z,14.00
2019-05-14T10:29:58.886Z,13.90
2019-05-14T10:32:29.490Z,13.90
2019-05-14T10:34:58.958Z,13.70
2019-05-14T10:37:28.771Z,13.60
2019-05-14T10:39:58.596Z,13.80
2019-05-14T10:42:29.368Z,13.60
2019-05-14T10:44:58.677Z,13.80
2019-05-14T10:47:29.189Z,14.30
2019-05-14T10:50:00.087Z,14.40
2019-05-14T10:52:28.988Z,14.20
2019-05-14T10:54:59.043Z,14.30
2019-05-14T10:57:51.374Z,14.40
2019-05-14T11:00:19.770Z,14.10
2019-05-14T11:02:56.664Z,14.10
2019-05-14T11:05:28.005Z,14.30
2019-05-14T11:07:55.746Z,14.20
2019-05-14T11:10:24.453Z,14.10
2019-05-14T11:12:55.047Z,14.20
2019-05-14T11:15:23.421Z,14.50
2019-05-14T11:17:52.099Z,14.70
2019-05-14T11:20:22.386Z,14.50
2019-05-14T11:22:50.984Z,14.30
2019-05-14T11:25:19.822Z,14.50
2019-05-14T11:27:49.379Z,14.90
2019-05-14T11:30:19.278Z,15.00
2019-05-14T11:32:49.320Z,14.80
2019-05-14T11:35:19.173Z,14.50
2019-05-14T11:37:48.155Z,14.30
2019-05-14T11:40:18.974Z,14.30
2019-05-14T11:42:49.559Z,14.50
2019-05-14T11:45:17.881Z,14.40
2019-05-14T11:48:05.879Z,14.20
2019-05-14T11:50:34.519Z,14.00
2019-05-14T11:53:04.713Z,13.80
2019-05-14T11:55:52.689Z,13.90
2019-05-14T11:58:21.609Z,14.20
2019-05-14T12:00:50.405Z,14.60
2019-05-14T12:03:19.876Z,14.70
2019-05-14T12:05:49.558Z,14.80
2019-05-14T12:08:18.722Z,15.10
2019-05-14T12:10:47.610Z,15.50
2019-05-14T12:13:19.643Z,15.70
2019-05-14T12:15:51.733Z,15.50
2019-05-14T12:18:24.804Z,15.10
2019-05-14T12:20:53.652Z,14.70
2019-05-14T12:23:22.388Z,14.80
2019-05-14T12:26:10.302Z,14.50
2019-05-14T12:28:41.502Z,14.80
2019-05-14T12:31:12.416Z,14.90
2019-05-14T12:33:41.083Z,14.90
2019-05-14T12:36:10.277Z,14.80
2019-05-14T12:38:39.196Z,15.20
2019-05-14T12:41:09.165Z,15.30
2019-05-14T12:43:39.624Z,15.20
2019-05-14T12:46:10.364Z,15.00
2019-05-14T12:48:39.254Z,14.80
2019-05-14T12:51:08.960Z,14.70
2019-05-14T12:53:39.466Z,15.00
2019-05-14T12:56:08.683Z,15.10
2019-05-14T12:58:44.655Z,15.00
2019-05-14T13:01:08.914Z,15.00
2019-05-14T13:03:38.173Z,15.20
2019-05-14T13:06:09.689Z,15.00
2019-05-14T13:08:38.891Z,15.20
2019-05-14T13:11:09.839Z,15.10
2019-05-14T13:13:58.798Z,15.20
2019-05-14T13:16:28.464Z,15.40
2019-05-14T13:18:59.724Z,15.70
2019-05-14T13:21:28.961Z,15.70
2019-05-14T13:23:58.227Z,15.50
2019-05-14T13:26:29.634Z,15.20
2019-05-14T13:28:58.892Z,15.20
2019-05-14T13:31:49.570Z,15.40
2019-05-14T13:34:19.490Z,15.60
2019-05-14T13:36:48.861Z,15.50
2019-05-14T13:39:19.380Z,15.30
2019-05-14T13:41:48.678Z,15.20
2019-05-14T13:44:24.504Z,15.10
2019-05-14T13:46:48.662Z,15.10
2019-05-14T13:49:19.046Z,15.30
2019-05-14T13:51:49.065Z,15.50
2019-05-14T13:54:19.252Z,15.50
2019-05-14T13:57:11.575Z,15.20
2019-05-14T13:59:59.702Z,15.10
2019-05-14T14:02:31.302Z,15.40
2019-05-14T14:04:59.040Z,15.70
2019-05-14T14:07:27.756Z,15.60
2019-05-14T14:09:58.975Z,15.40
2019-05-14T14:12:31.887Z,15.00
2019-05-14T14:14:58.658Z,15.00
2019-05-14T14:17:29.273Z,15.00
2019-05-14T14:20:19.349Z,15.10
2019-05-14T14:22:49.061Z,15.20
2019-05-14T14:25:17.872Z,15.10
2019-05-14T14:27:48.723Z,15.40
2019-05-14T14:30:19.521Z,15.50
2019-05-14T14:32:49.537Z,15.60
2019-05-14T14:35:23.616Z,15.50
2019-05-14T14:37:49.353Z,15.30
2019-05-14T14:40:21.939Z,15.40
2019-05-14T14:42:49.194Z,15.40
2019-05-14T14:45:21.518Z,15.30
2019-05-14T14:47:49.748Z,15.40
2019-05-14T14:50:19.523Z,15.50
2019-05-14T14:52:49.487Z,15.50
2019-05-14T14:55:19.279Z,15.50
2019-05-14T14:57:53.922Z,15.60
2019-05-14T15:00:19.469Z,15.50
2019-05-14T15:02:49.527Z,15.40
2019-05-14T15:05:19.927Z,15.00
2019-05-14T15:07:49.970Z,14.90
2019-05-14T15:10:19.354Z,14.90
2019-05-14T15:12:49.706Z,14.90
2019-05-14T15:15:18.746Z,14.90
2019-05-14T15:17:48.309Z,15.00
2019-05-14T15:20:19.544Z,15.10
2019-05-14T15:22:49.128Z,15.30
2019-05-14T15:25:18.547Z,15.30
2019-05-14T15:27:49.144Z,15.40
2019-05-14T15:30:39.740Z,15.60
2019-05-14T15:33:09.284Z,15.50
2019-05-14T15:35:37.981Z,15.30
2019-05-14T15:38:11.119Z,15.30
2019-05-14T15:40:39.766Z,15.40
2019-05-14T15:43:09.821Z,15.50
2019-05-14T15:45:37.917Z,15.20
2019-05-14T15:48:08.927Z,14.90
2019-05-14T15:50:38.895Z,14.50
2019-05-14T15:53:10.934Z,14.20
2019-05-14T15:55:38.358Z,14.20
2019-05-14T15:58:08.780Z,14.20
2019-05-14T16:00:38.504Z,14.30
2019-05-14T16:03:08.585Z,14.60
2019-05-14T16:05:39.264Z,14.90
2019-05-14T16:08:08.284Z,15.00
2019-05-14T16:10:39.617Z,14.80
2019-05-14T16:13:08.808Z,14.60
2019-05-14T16:15:38.970Z,14.50
2019-05-14T16:18:14.988Z,14.30
2019-05-14T16:20:39.245Z,14.20
2019-05-14T16:23:10.915Z,14.00
2019-05-14T16:25:38.489Z,14.10
2019-05-14T16:28:08.768Z,14.00
2019-05-14T16:30:39.750Z,14.10
2019-05-14T16:33:09.297Z,14.20
2019-05-14T16:35:39.257Z,14.20
2019-05-14T16:38:08.471Z,14.20
2019-05-14T16:40:39.487Z,14.20
2019-05-14T16:43:07.447Z,14.10
2019-05-14T16:45:36.148Z,14.10
2019-05-14T16:48:04.886Z,14.10
2019-05-14T16:50:33.442Z,14.20
2019-05-14T16:53:21.450Z,14.30
2019-05-14T16:55:50.082Z,14.40
2019-05-14T16:58:19.642Z,14.40
2019-05-14T17:00:48.576Z,14.30
2019-05-14T17:03:19.093Z,14.10
2019-05-14T17:05:48.739Z,14.00
2019-05-14T17:08:19.086Z,13.80
2019-05-14T17:10:48.331Z,13.80
2019-05-14T17:13:17.952Z,13.70
2019-05-14T17:16:08.325Z,13.70
2019-05-14T17:18:36.303Z,13.80
2019-05-14T17:21:05.158Z,13.80
2019-05-14T17:23:33.861Z,13.80
2019-05-14T17:26:02.522Z,13.80
2019-05-14T17:28:31.159Z,13.80
2019-05-14T17:30:59.815Z,13.90
2019-05-14T17:33:29.145Z,14.00
2019-05-14T17:35:58.618Z,14.00
2019-05-14T17:38:29.197Z,13.90
2019-05-14T17:40:59.745Z,13.70
2019-05-14T17:43:28.509Z,13.60
2019-05-14T17:45:58.761Z,13.60
2019-05-14T17:48:28.563Z,13.70
2019-05-14T17:50:59.778Z,13.70
2019-05-14T17:53:48.114Z,13.60
2019-05-14T17:56:19.142Z,13.50
2019-05-14T17:58:48.970Z,13.40
2019-05-14T18:01:18.358Z,13.40
2019-05-14T18:03:53.113Z,13.30
2019-05-14T18:06:21.780Z,13.20
2019-05-14T18:08:50.440Z,13.20
2019-05-14T18:11:19.283Z,13.20
2019-05-14T18:13:48.598Z,13.10
2019-05-14T18:16:19.244Z,13.10
2019-05-14T18:18:49.481Z,13.10
2019-05-14T18:21:18.617Z,13.00
2019-05-14T18:23:49.234Z,12.90
2019-05-14T18:26:18.924Z,12.90
2019-05-14T18:28:47.770Z,12.80
2019-05-14T18:31:19.607Z,12.70
2019-05-14T18:33:48.908Z,12.70
2019-05-14T18:36:19.089Z,12.60
2019-05-14T18:38:49.375Z,12.60
2019-05-14T18:41:18.845Z,12.50
2019-05-14T18:43:47.860Z,12.60
2019-05-14T18:46:35.904Z,12.60
2019-05-14T18:49:04.662Z,12.50
2019-05-14T18:51:52.562Z,12.40
2019-05-14T18:54:21.588Z,12.40
2019-05-14T18:56:50.554Z,12.20
2019-05-14T18:59:39.063Z,12.20
2019-05-14T19:02:08.659Z,12.10
2019-05-14T19:04:38.165Z,12.20
2019-05-14T19:07:28.497Z,12.20
2019-05-14T19:10:15.872Z,12.10
2019-05-14T19:12:47.144Z,12.00
2019-05-14T19:15:15.621Z,11.80
2019-05-14T19:17:44.261Z,11.80
2019-05-14T19:20:13.290Z,11.80
2019-05-14T19:22:41.864Z,11.70
2019-05-14T19:25:10.681Z,11.70
2019-05-14T19:27:39.241Z,11.70
2019-05-14T19:30:09.542Z,11.60
2019-05-14T19:32:39.185Z,11.50
2019-05-14T19:35:08.751Z,11.50
2019-05-14T19:37:39.010Z,11.50
2019-05-14T19:40:09.254Z,11.40
2019-05-14T19:42:39.123Z,11.30
2019-05-14T19:45:08.672Z,11.40
2019-05-14T19:47:39.920Z,11.30
2019-05-14T19:50:08.983Z,11.20
2019-05-14T19:52:39.358Z,11.10
2019-05-14T19:55:09.771Z,11.00
2019-05-14T19:57:39.877Z,11.00
2019-05-14T20:00:09.342Z,10.90
2019-05-14T20:02:38.789Z,10.80
2019-05-14T20:05:09.073Z,10.80
2019-05-14T20:07:38.861Z,10.60
2019-05-14T20:10:08.731Z,10.40
2019-05-14T20:12:39.126Z,10.30
2019-05-14T20:15:09.500Z,10.40
2019-05-14T20:17:38.582Z,10.30
2019-05-14T20:20:09.276Z,10.10
2019-05-14T20:22:58.977Z,10.10
2019-05-14T20:25:28.393Z,10.10
2019-05-14T20:27:58.721Z,10.00
2019-05-14T20:30:29.435Z,9.90
2019-05-14T20:32:59.259Z,10.00
2019-05-14T20:35:34.321Z,9.90
2019-05-14T20:37:58.643Z,9.90
2019-05-14T20:40:48.750Z,9.70
2019-05-14T20:43:18.481Z,9.70
2019-05-14T20:45:48.937Z,9.60
2019-05-14T20:48:18.891Z,9.60
2019-05-14T20:50:47.890Z,9.60
2019-05-14T20:53:18.499Z,9.50
2019-05-14T20:55:46.900Z,9.50
2019-05-14T20:58:15.509Z,9.40
2019-05-14T21:01:03.505Z,9.30
2019-05-14T21:03:32.061Z,9.20
2019-05-14T21:06:00.721Z,9.20
2019-05-14T21:08:29.351Z,9.20
2019-05-14T21:11:19.106Z,9.20
2019-05-14T21:13:50.012Z,9.20
2019-05-14T21:16:18.294Z,9.20
2019-05-14T21:19:08.445Z,9.10
2019-05-14T21:21:38.359Z,9.00
2019-05-14T21:24:08.676Z,8.90
2019-05-14T21:26:58.338Z,8.80
2019-05-14T21:29:30.383Z,8.70
2019-05-14T21:31:56.890Z,8.70
2019-05-14T21:34:25.517Z,8.60
2019-05-14T21:36:54.105Z,8.60
2019-05-14T21:39:22.806Z,8.60
2019-05-14T21:41:51.397Z,8.40
2019-05-14T21:44:39.373Z,8.40
2019-05-14T21:47:08.318Z,8.30
2019-05-14T21:49:39.032Z,8.30
2019-05-14T21:52:28.837Z,8.30
2019-05-14T21:54:58.653Z,8.30
2019-05-14T21:57:28.410Z,8.30
2019-05-14T21:59:58.829Z,8.40
2019-05-14T22:02:30.493Z,8.30
2019-05-14T22:05:01.495Z,8.40
2019-05-14T22:07:48.965Z,8.40
2019-05-14T22:10:39.287Z,8.40
2019-05-14T22:13:07.250Z,8.50
2019-05-14T22:15:38.642Z,8.50
2019-05-14T22:18:16.559Z,8.50
2019-05-14T22:20:38.506Z,8.50
2019-05-14T22:23:08.900Z,8.50
2019-05-14T22:25:39.541Z,8.60
2019-05-14T22:28:15.155Z,8.50
2019-05-14T22:30:38.835Z,8.40
2019-05-14T22:33:08.678Z,8.30
2019-05-14T22:35:58.078Z,8.20
2019-05-14T22:38:29.193Z,8.20
2019-05-14T22:40:59.251Z,8.10
2019-05-14T22:43:28.833Z,8.00
2019-05-14T22:45:59.101Z,8.00
2019-05-14T22:48:27.787Z,7.80
2019-05-14T22:50:58.974Z,7.80
2019-05-14T22:53:27.845Z,7.70
2019-05-14T22:55:58.624Z,7.60
2019-05-14T22:58:28.826Z,7.70
2019-05-14T23:01:13.524Z,7.60
2019-05-14T23:03:28.938Z,7.60
2019-05-14T23:06:18.794Z,7.60
2019-05-14T23:08:48.725Z,7.50
2019-05-14T23:11:19.485Z,7.50
2019-05-14T23:13:48.777Z,7.50
2019-05-14T23:16:41.231Z,7.30
2019-05-14T23:19:08.034Z,7.10
2019-05-14T23:21:38.824Z,7.00
2019-05-14T23:24:09.145Z,6.90
2019-05-14T23:26:37.295Z,6.90
2019-05-14T23:29:25.305Z,6.80
2019-05-14T23:31:53.865Z,6.80
2019-05-14T23:34:41.857Z,6.80
2019-05-14T23:37:10.493Z,6.70
2019-05-14T23:39:39.321Z,6.80
2019-05-14T23:42:09.102Z,6.80
2019-05-14T23:44:38.208Z,6.80
2019-05-14T23:47:08.308Z,6.80
2019-05-14T23:49:38.963Z,6.80
2019-05-14T23:52:07.291Z,6.70
2019-05-14T23:54:35.856Z,6.50
2019-05-14T23:57:04.482Z,6.40
2019-05-14T23:59:33.144Z,6.30
